Darstellungsparameter: Aktuell verwendete Einstellungen:
Skalierung der Graphiken ... ?
xyx+y,   Skalierungsfaktor:      Skalierung: Modus: x, Faktor: 1
Darstellungszeitraum ... ?
Vom - - bis: - -   Zeitraum: 12.09.2018 - 12.09.2018
Min/Max/Avg-Anzeige ... ?
Zeige MMA aktuell
Zeige MMA Monat
Zeige MMA alles
Zeige --A aktuell
Zeige --A Monat
Zeige --A alles
Keine MMA-Anzeige
MMA:
Keine MMA-Graphiken
MMA-Basis: 12.09.2018 - 12.09.2018
Quicknavigation für Darstellung... ?
Tage:      1T, 2T, 3T, 5T -1T -2T -3T -5T +1T +2T +3T +5T
Wochen: 1W, 2W, 3W -1W -2W -3W +1W +2W +3W
Monate: 1M, 3M, 6M -1M -3M -6M +1M +3M +6M
Jahre:    1J, 3J, 5J, 10J -1J -3J -5J -10J +1J +3J +5J +10J
Nutze für die Darstellung ... ?
Originaldaten oder Mittelwerte auf ...
Stundenbasis Tagesbasis Wochenbasis
Monatsbasis Jahresbasis      Datenbasis: Original-Daten
Darstellen als:
Statistik (Auto) Statistik J:M      Darstellung:
Zur Graphik,    zurück zur Übersicht aller Sensoren.
 
Tabellarische Datenbersicht: ?
 
Sensor: Nr:Datum:Temp:Abs-Feuchte:Windchill:Wind:
Aussen-T/F 1 12-09-2018 00:00:00 17.1 C 10.63 g/m*3 17.1 C 0 km/h
2 12-09-2018 00:05:00 17 C 10.71 g/m*3 17 C 3.2 km/h
3 12-09-2018 00:10:00 16.9 C 10.64 g/m*3 16.9 C 0 km/h
4 12-09-2018 00:15:00 16.8 C 10.58 g/m*3 16.8 C 0 km/h
5 12-09-2018 00:20:00 16.7 C 10.52 g/m*3 16.7 C 0 km/h
6 12-09-2018 00:25:00 16.7 C 10.52 g/m*3 16.7 C 0 km/h
7 12-09-2018 00:30:00 16.6 C 10.45 g/m*3 16.6 C 0 km/h
8 12-09-2018 00:35:00 16.4 C 10.47 g/m*3 16.4 C 0 km/h
9 12-09-2018 00:40:00 16.3 C 10.41 g/m*3 16.3 C 0 km/h
10 12-09-2018 00:45:00 16.2 C 10.34 g/m*3 16.2 C 0 km/h
11 12-09-2018 00:50:00 16.2 C 10.62 g/m*3 16.2 C 0 km/h
12 12-09-2018 00:55:00 16.2 C 10.62 g/m*3 16.2 C 0 km/h
13 12-09-2018 01:00:00 16.1 C 10.55 g/m*3 16.1 C 0 km/h
14 12-09-2018 01:05:00 15.8 C 10.36 g/m*3 15.8 C 0 km/h
15 12-09-2018 01:10:00 15.6 C 10.37 g/m*3 15.6 C 0 km/h
16 12-09-2018 01:15:00 15.5 C 10.31 g/m*3 15.5 C 0 km/h
17 12-09-2018 01:20:00 15.4 C 10.38 g/m*3 15.4 C 0 km/h
18 12-09-2018 01:25:00 15.4 C 10.25 g/m*3 15.4 C 0 km/h
19 12-09-2018 01:30:00 15.4 C 10.25 g/m*3 15.4 C 0 km/h
20 12-09-2018 01:35:00 15.3 C 10.45 g/m*3 15.3 C 0 km/h
21 12-09-2018 01:40:00 15.2 C 10.38 g/m*3 15.2 C 0 km/h
22 12-09-2018 01:45:00 15 C 10.26 g/m*3 15 C 0 km/h
23 12-09-2018 01:50:00 14.9 C 10.2 g/m*3 14.9 C 0 km/h
24 12-09-2018 01:55:00 14.8 C 10.26 g/m*3 14.8 C 0 km/h
25 12-09-2018 02:00:00 14.8 C 10.26 g/m*3 14.8 C 0 km/h
Sensor: Nr:Datum:Temp:Abs-Feuchte:Windchill:Wind:
Aussen-T/F 26 12-09-2018 02:05:00 14.8 C 10.13 g/m*3 14.8 C 0 km/h
27 12-09-2018 02:10:00 14.7 C 10.2 g/m*3 14.7 C 0 km/h
28 12-09-2018 02:15:00 14.5 C 10.07 g/m*3 14.5 C 0 km/h
29 12-09-2018 02:20:00 14.3 C 9.95 g/m*3 14.3 C 0 km/h
30 12-09-2018 02:25:00 14.2 C 10.01 g/m*3 14.2 C 0 km/h
31 12-09-2018 02:30:00 14.1 C 10.07 g/m*3 14.1 C 0 km/h
32 12-09-2018 02:35:00 14 C 10.01 g/m*3 14 C 0 km/h
33 12-09-2018 02:40:00 14 C 10.13 g/m*3 14 C 0 km/h
34 12-09-2018 02:45:00 13.9 C 10.07 g/m*3 13.9 C 0 km/h
35 12-09-2018 02:50:00 13.9 C 10.07 g/m*3 13.9 C 0 km/h
36 12-09-2018 02:55:00 13.8 C 10.01 g/m*3 13.8 C 0 km/h
37 12-09-2018 03:00:00 13.8 C 10.13 g/m*3 13.8 C 0 km/h
38 12-09-2018 03:05:00 14.1 C 10.44 g/m*3 14.1 C 0 km/h
39 12-09-2018 03:10:00 14.1 C 10.07 g/m*3 14.1 C 0 km/h
40 12-09-2018 03:15:00 13.9 C 10.07 g/m*3 13.9 C 0 km/h
41 12-09-2018 03:20:00 13.9 C 10.07 g/m*3 13.9 C 0 km/h
42 12-09-2018 03:25:00 13.9 C 10.07 g/m*3 13.9 C 0 km/h
43 12-09-2018 03:30:00 13.8 C 10.01 g/m*3 13.8 C 0 km/h
44 12-09-2018 03:35:00 13.7 C 9.95 g/m*3 13.7 C 0 km/h
45 12-09-2018 03:40:00 13.6 C 9.89 g/m*3 13.6 C 0 km/h
46 12-09-2018 03:45:00 13.4 C 9.76 g/m*3 13.4 C 0 km/h
47 12-09-2018 03:50:00 13.3 C 9.82 g/m*3 13.3 C 0 km/h
48 12-09-2018 03:55:00 13.2 C 9.87 g/m*3 13.2 C 0 km/h
49 12-09-2018 04:00:00 13.2 C 9.87 g/m*3 13.2 C 0 km/h
50 12-09-2018 04:05:00 13.2 C 9.87 g/m*3 13.2 C 0 km/h
Sensor: Nr:Datum:Temp:Abs-Feuchte:Windchill:Wind:
Aussen-T/F 51 12-09-2018 04:10:00 13.2 C 9.87 g/m*3 13.2 C 0 km/h
52 12-09-2018 04:15:00 13.1 C 9.81 g/m*3 13.1 C 0 km/h
53 12-09-2018 04:20:00 13 C 9.75 g/m*3 13 C 0 km/h
54 12-09-2018 04:25:00 12.9 C 9.69 g/m*3 12.9 C 0 km/h
55 12-09-2018 04:30:00 12.9 C 9.69 g/m*3 12.9 C 0 km/h
56 12-09-2018 04:35:00 12.9 C 9.81 g/m*3 12.9 C 0 km/h
57 12-09-2018 04:40:00 12.9 C 9.81 g/m*3 12.9 C 0 km/h
58 12-09-2018 04:45:00 12.9 C 9.81 g/m*3 12.9 C 0 km/h
59 12-09-2018 04:50:00 12.8 C 9.74 g/m*3 12.8 C 0 km/h
60 12-09-2018 04:55:00 12.8 C 9.74 g/m*3 12.8 C 0 km/h
61 12-09-2018 05:00:00 12.7 C 9.68 g/m*3 12.7 C 0 km/h
62 12-09-2018 05:05:00 12.7 C 9.8 g/m*3 12.7 C 0 km/h
63 12-09-2018 05:10:00 12.7 C 9.68 g/m*3 12.7 C 0 km/h
64 12-09-2018 05:15:00 12.7 C 9.68 g/m*3 12.7 C 0 km/h
65 12-09-2018 05:20:00 12.6 C 9.62 g/m*3 12.6 C 0 km/h
66 12-09-2018 05:25:00 12.5 C 9.57 g/m*3 12.5 C 0 km/h
67 12-09-2018 05:30:00 12.5 C 9.68 g/m*3 12.5 C 0 km/h
68 12-09-2018 05:35:00 12.4 C 9.62 g/m*3 12.4 C 0 km/h
69 12-09-2018 05:40:00 12.3 C 9.56 g/m*3 12.3 C 0 km/h
70 12-09-2018 05:45:00 12.3 C 9.56 g/m*3 12.3 C 0 km/h
71 12-09-2018 05:50:00 12.3 C 9.66 g/m*3 12.3 C 0 km/h
72 12-09-2018 05:55:00 12.3 C 9.66 g/m*3 12.3 C 0 km/h
73 12-09-2018 06:00:00 12.2 C 9.5 g/m*3 12.2 C 0 km/h
74 12-09-2018 06:05:00 12.2 C 9.6 g/m*3 12.2 C 0 km/h
75 12-09-2018 06:10:00 12.1 C 9.54 g/m*3 12.1 C 0 km/h
Sensor: Nr:Datum:Temp:Abs-Feuchte:Windchill:Wind:
Aussen-T/F 76 12-09-2018 06:15:00 12.1 C 9.54 g/m*3 12.1 C 0 km/h
77 12-09-2018 06:20:00 12.1 C 9.54 g/m*3 12.1 C 0 km/h
78 12-09-2018 06:25:00 12 C 9.48 g/m*3 12 C 0 km/h
79 12-09-2018 06:30:00 11.9 C 9.43 g/m*3 11.9 C 0 km/h
80 12-09-2018 06:35:00 11.9 C 9.43 g/m*3 11.9 C 0 km/h
81 12-09-2018 06:40:00 11.8 C 9.37 g/m*3 11.8 C 0 km/h
82 12-09-2018 06:45:00 11.7 C 9.31 g/m*3 11.7 C 0 km/h
83 12-09-2018 06:50:00 11.7 C 9.41 g/m*3 11.7 C 0 km/h
84 12-09-2018 06:55:00 11.6 C 9.35 g/m*3 11.6 C 0 km/h
85 12-09-2018 07:00:00 11.6 C 9.35 g/m*3 11.6 C 0 km/h
86 12-09-2018 07:05:00 11.5 C 9.3 g/m*3 11.5 C 0 km/h
87 12-09-2018 07:10:00 11.6 C 9.46 g/m*3 11.6 C 0 km/h
88 12-09-2018 07:15:00 11.7 C 9.62 g/m*3 11.7 C 0 km/h
89 12-09-2018 07:20:00 11.7 C 9.52 g/m*3 11.7 C 0 km/h
90 12-09-2018 07:25:00 11.7 C 9.52 g/m*3 11.7 C 0 km/h
91 12-09-2018 07:30:00 11.6 C 9.46 g/m*3 11.6 C 0 km/h
92 12-09-2018 07:35:00 11.6 C 9.46 g/m*3 11.6 C 0 km/h
93 12-09-2018 07:40:00 11.6 C 9.46 g/m*3 11.6 C 0 km/h
94 12-09-2018 07:45:00 11.6 C 9.46 g/m*3 11.6 C 0 km/h
95 12-09-2018 07:50:00 11.6 C 9.56 g/m*3 11.6 C 0 km/h
96 12-09-2018 07:55:00 11.7 C 9.52 g/m*3 11.7 C 0 km/h
97 12-09-2018 08:00:00 11.7 C 9.62 g/m*3 11.7 C 0 km/h
98 12-09-2018 08:05:00 11.7 C 9.62 g/m*3 11.7 C 0 km/h
99 12-09-2018 08:10:00 11.8 C 9.68 g/m*3 11.8 C 0 km/h
100 12-09-2018 08:15:00 11.8 C 9.58 g/m*3 11.8 C 0 km/h
Sensor: Nr:Datum:Temp:Abs-Feuchte:Windchill:Wind:
Aussen-T/F 101 12-09-2018 08:20:00 11.8 C 9.68 g/m*3 11.8 C 0 km/h
102 12-09-2018 08:25:00 11.8 C 9.68 g/m*3 11.8 C 0 km/h
103 12-09-2018 08:30:00 11.9 C 9.74 g/m*3 11.9 C 0 km/h
104 12-09-2018 08:35:00 12 C 9.8 g/m*3 12 C 0 km/h
105 12-09-2018 08:40:00 12.1 C 9.87 g/m*3 12.1 C 0 km/h
106 12-09-2018 08:45:00 12.2 C 9.93 g/m*3 12.2 C 0 km/h
107 12-09-2018 08:50:00 12.3 C 9.99 g/m*3 12.3 C 0 km/h
108 12-09-2018 08:55:00 12.4 C 10.05 g/m*3 12.4 C 0 km/h
109 12-09-2018 09:00:00 12.6 C 10.18 g/m*3 12.6 C 0 km/h
110 12-09-2018 09:05:00 12.7 C 10.13 g/m*3 12.7 C 1.6 km/h
111 12-09-2018 09:10:00 12.8 C 10.19 g/m*3 12.8 C 0 km/h
112 12-09-2018 09:15:00 12.9 C 10.26 g/m*3 12.9 C 0 km/h
113 12-09-2018 09:20:00 13.1 C 10.27 g/m*3 13.1 C 0 km/h
114 12-09-2018 09:25:00 13.2 C 10.33 g/m*3 13.2 C 0 km/h
115 12-09-2018 09:30:00 13.3 C 10.4 g/m*3 13.3 C 0 km/h
116 12-09-2018 09:35:00 13.4 C 10.46 g/m*3 13.4 C 0 km/h
117 12-09-2018 09:40:00 13.5 C 10.53 g/m*3 13.5 C 0 km/h
118 12-09-2018 09:45:00 13.7 C 10.66 g/m*3 13.7 C 0 km/h
119 12-09-2018 09:50:00 14 C 10.74 g/m*3 14 C 0 km/h
120 12-09-2018 09:55:00 14.3 C 10.81 g/m*3 14.3 C 1.6 km/h
121 12-09-2018 10:00:00 14.7 C 10.95 g/m*3 14.7 C 0 km/h
122 12-09-2018 10:05:00 15 C 11.03 g/m*3 15 C 0 km/h
123 12-09-2018 10:10:00 15.4 C 11.17 g/m*3 15.4 C 0 km/h
124 12-09-2018 10:15:00 15.8 C 11.31 g/m*3 15.8 C 0 km/h
125 12-09-2018 10:20:00 16 C 11.17 g/m*3 16 C 0 km/h
Sensor: Nr:Datum:Temp:Abs-Feuchte:Windchill:Wind:
Aussen-T/F 126 12-09-2018 10:25:00 16.3 C 11.38 g/m*3 16.3 C 0 km/h
127 12-09-2018 10:30:00 16.6 C 11.44 g/m*3 16.6 C 0 km/h
128 12-09-2018 10:35:00 16.9 C 11.36 g/m*3 16.9 C 0 km/h
129 12-09-2018 10:40:00 17.3 C 11.34 g/m*3 17.3 C 1.6 km/h
130 12-09-2018 10:45:00 17.8 C 11.23 g/m*3 17.8 C 8.1 km/h
131 12-09-2018 10:50:00 18.3 C 11.41 g/m*3 18.3 C 3.2 km/h
132 12-09-2018 10:55:00 18.7 C 11.53 g/m*3 18.7 C 4.8 km/h
133 12-09-2018 11:00:00 19.1 C 11.64 g/m*3 19.1 C 6.4 km/h
134 12-09-2018 11:05:00 19.3 C 11.61 g/m*3 19.3 C 1.6 km/h
135 12-09-2018 11:10:00 19.6 C 11.82 g/m*3 19.6 C 1.6 km/h
136 12-09-2018 11:15:00 19.9 C 11.68 g/m*3 19.9 C 6.4 km/h
137 12-09-2018 11:20:00 20.2 C 11.71 g/m*3 20.2 C 1.6 km/h
138 12-09-2018 11:25:00 20.4 C 11.68 g/m*3 20.4 C 1.6 km/h
139 12-09-2018 11:30:00 20.6 C 11.63 g/m*3 20.6 C 6.4 km/h
140 12-09-2018 11:35:00 20.8 C 11.59 g/m*3 20.8 C 3.2 km/h
141 12-09-2018 11:40:00 21 C 12.09 g/m*3 21 C 1.6 km/h
142 12-09-2018 11:45:00 21.2 C 11.49 g/m*3 21.2 C 3.2 km/h
143 12-09-2018 11:50:00 21.4 C 11.44 g/m*3 21.4 C 1.6 km/h
144 12-09-2018 11:55:00 21.8 C 11.7 g/m*3 21.8 C 1.6 km/h
145 12-09-2018 12:00:00 22.2 C 11.98 g/m*3 22.2 C 6.4 km/h
146 12-09-2018 12:05:00 22.4 C 11.92 g/m*3 22.4 C 1.6 km/h
147 12-09-2018 12:10:00 22.4 C 11.92 g/m*3 22.4 C 4.8 km/h
148 12-09-2018 12:15:00 22.6 C 11.85 g/m*3 22.6 C 3.2 km/h
149 12-09-2018 12:20:00 22.7 C 11.92 g/m*3 22.7 C 4.8 km/h
150 12-09-2018 12:25:00 22.8 C 11.79 g/m*3 22.8 C 1.6 km/h
Sensor: Nr:Datum:Temp:Abs-Feuchte:Windchill:Wind:
Aussen-T/F 151 12-09-2018 12:30:00 23 C 11.72 g/m*3 23 C 3.2 km/h
152 12-09-2018 12:35:00 23.1 C 11.78 g/m*3 23.1 C 4.8 km/h
153 12-09-2018 12:40:00 23.3 C 11.71 g/m*3 23.3 C 6.4 km/h
154 12-09-2018 12:45:00 23.6 C 11.91 g/m*3 23.6 C 4.8 km/h
155 12-09-2018 12:50:00 23.7 C 11.76 g/m*3 23.7 C 6.4 km/h
156 12-09-2018 12:55:00 23.9 C 11.9 g/m*3 23.9 C 9.7 km/h
157 12-09-2018 13:00:00 24.1 C 11.82 g/m*3 24.1 C 8.1 km/h
158 12-09-2018 13:05:00 24.2 C 11.66 g/m*3 24.2 C 8.1 km/h
159 12-09-2018 13:10:00 24.3 C 11.73 g/m*3 24.3 C 4.8 km/h
160 12-09-2018 13:15:00 24.4 C 11.57 g/m*3 24.4 C 4.8 km/h
161 12-09-2018 13:20:00 24.6 C 11.7 g/m*3 24.6 C 4.8 km/h
162 12-09-2018 13:25:00 24.7 C 11.77 g/m*3 24.7 C 6.4 km/h
163 12-09-2018 13:30:00 24.8 C 11.61 g/m*3 24.8 C 4.8 km/h
164 12-09-2018 13:35:00 24.9 C 11.67 g/m*3 24.9 C 6.4 km/h
165 12-09-2018 13:40:00 25.1 C 11.81 g/m*3 25.1 C 8.1 km/h
166 12-09-2018 13:45:00 25.2 C 11.64 g/m*3 25.2 C 6.4 km/h
167 12-09-2018 13:50:00 25.3 C 11.71 g/m*3 25.3 C 4.8 km/h
168 12-09-2018 13:55:00 25.4 C 11.54 g/m*3 25.4 C 4.8 km/h
169 12-09-2018 14:00:00 25.6 C 11.9 g/m*3 25.6 C 4.8 km/h
170 12-09-2018 14:05:00 25.8 C 11.8 g/m*3 25.8 C 8.1 km/h
171 12-09-2018 14:10:00 25.9 C 11.62 g/m*3 25.9 C 9.7 km/h
172 12-09-2018 14:15:00 26.1 C 11.75 g/m*3 26.1 C 12.9 km/h
173 12-09-2018 14:20:00 26.2 C 11.57 g/m*3 26.2 C 12.9 km/h
174 12-09-2018 14:25:00 26.3 C 11.88 g/m*3 26.3 C 6.4 km/h
175 12-09-2018 14:30:00 26.4 C 11.95 g/m*3 26.4 C 12.9 km/h
Sensor: Nr:Datum:Temp:Abs-Feuchte:Windchill:Wind:
Aussen-T/F 176 12-09-2018 14:35:00 26.6 C 11.83 g/m*3 26.6 C 9.7 km/h
177 12-09-2018 14:40:00 26.7 C 11.64 g/m*3 26.7 C 4.8 km/h
178 12-09-2018 14:45:00 26.8 C 11.71 g/m*3 26.8 C 11.3 km/h
179 12-09-2018 14:50:00 26.9 C 11.77 g/m*3 26.9 C 6.4 km/h
180 12-09-2018 14:55:00 27.1 C 11.39 g/m*3 27.1 C 8.1 km/h
181 12-09-2018 15:00:00 27.1 C 11.65 g/m*3 27.1 C 9.7 km/h
182 12-09-2018 15:05:00 27.2 C 11.97 g/m*3 27.2 C 9.7 km/h
183 12-09-2018 15:10:00 27.2 C 11.71 g/m*3 27.2 C 9.7 km/h
184 12-09-2018 15:15:00 27.3 C 11.77 g/m*3 27.3 C 8.1 km/h
185 12-09-2018 15:20:00 27.3 C 11.77 g/m*3 27.3 C 4.8 km/h
186 12-09-2018 15:25:00 27.3 C 11.77 g/m*3 27.3 C 9.7 km/h
187 12-09-2018 15:30:00 27.3 C 11.77 g/m*3 27.3 C 6.4 km/h
188 12-09-2018 15:35:00 27.3 C 12.04 g/m*3 27.3 C 14.5 km/h
189 12-09-2018 15:40:00 27.2 C 11.97 g/m*3 27.2 C 9.7 km/h
190 12-09-2018 15:45:00 27.3 C 11.77 g/m*3 27.3 C 11.3 km/h
191 12-09-2018 15:50:00 27.3 C 11.77 g/m*3 27.3 C 8.1 km/h
192 12-09-2018 15:55:00 27.3 C 11.77 g/m*3 27.3 C 3.2 km/h
193 12-09-2018 16:00:00 27.3 C 12.04 g/m*3 27.3 C 11.3 km/h
194 12-09-2018 16:05:00 27.4 C 12.1 g/m*3 27.4 C 11.3 km/h
195 12-09-2018 16:10:00 27.5 C 12.17 g/m*3 27.5 C 9.7 km/h
196 12-09-2018 16:15:00 27.6 C 11.97 g/m*3 27.6 C 8.1 km/h
197 12-09-2018 16:20:00 27.6 C 12.24 g/m*3 27.6 C 11.3 km/h
198 12-09-2018 16:25:00 27.7 C 12.04 g/m*3 27.7 C 11.3 km/h
199 12-09-2018 16:30:00 27.8 C 12.1 g/m*3 27.8 C 11.3 km/h
200 12-09-2018 16:35:00 27.8 C 12.1 g/m*3 27.8 C 9.7 km/h
Sensor: Nr:Datum:Temp:Abs-Feuchte:Windchill:Wind:
Aussen-T/F 201 12-09-2018 16:40:00 27.9 C 12.17 g/m*3 27.9 C 12.9 km/h
202 12-09-2018 16:45:00 28.1 C 12.3 g/m*3 28.1 C 4.8 km/h
203 12-09-2018 16:50:00 28.3 C 12.16 g/m*3 28.3 C 11.3 km/h
204 12-09-2018 16:55:00 28.6 C 12.37 g/m*3 28.6 C 8.1 km/h
205 12-09-2018 17:00:00 29 C 12.06 g/m*3 29 C 8.1 km/h
206 12-09-2018 17:05:00 29.1 C 12.42 g/m*3 29.1 C 6.4 km/h
207 12-09-2018 17:10:00 29.3 C 12.26 g/m*3 29.3 C 4.8 km/h
208 12-09-2018 17:15:00 29.4 C 12.33 g/m*3 29.4 C 8.1 km/h
209 12-09-2018 17:20:00 29.2 C 12.49 g/m*3 29.2 C 14.5 km/h
210 12-09-2018 17:25:00 29.1 C 12.42 g/m*3 29.1 C 4.8 km/h
211 12-09-2018 17:30:00 29.2 C 12.78 g/m*3 29.2 C 6.4 km/h
212 12-09-2018 17:35:00 29.3 C 12.55 g/m*3 29.3 C 8.1 km/h
213 12-09-2018 17:40:00 29.2 C 12.78 g/m*3 29.2 C 8.1 km/h
214 12-09-2018 17:45:00 29.1 C 12.71 g/m*3 29.1 C 8.1 km/h
215 12-09-2018 17:50:00 29.1 C 12.71 g/m*3 29.1 C 8.1 km/h
216 12-09-2018 17:55:00 29.3 C 12.55 g/m*3 29.3 C 9.7 km/h
217 12-09-2018 18:00:00 29.2 C 12.78 g/m*3 29.2 C 12.9 km/h
218 12-09-2018 18:05:00 29.1 C 12.42 g/m*3 29.1 C 9.7 km/h
219 12-09-2018 18:10:00 29.1 C 13 g/m*3 29.1 C 9.7 km/h
220 12-09-2018 18:15:00 28.9 C 12.57 g/m*3 28.9 C 11.3 km/h
221 12-09-2018 18:20:00 28.6 C 12.65 g/m*3 28.6 C 14.5 km/h
222 12-09-2018 18:25:00 28.3 C 12.44 g/m*3 28.3 C 11.3 km/h
223 12-09-2018 18:30:00 28.1 C 12.3 g/m*3 28.1 C 9.7 km/h
224 12-09-2018 18:35:00 27.9 C 12.44 g/m*3 27.9 C 11.3 km/h
225 12-09-2018 18:40:00 27.7 C 12.57 g/m*3 27.7 C 9.7 km/h
Sensor: Nr:Datum:Temp:Abs-Feuchte:Windchill:Wind:
Aussen-T/F 226 12-09-2018 18:45:00 27.2 C 12.23 g/m*3 27.2 C 11.3 km/h
227 12-09-2018 18:50:00 26.8 C 11.96 g/m*3 26.8 C 8.1 km/h
228 12-09-2018 18:55:00 26.5 C 12.02 g/m*3 26.5 C 8.1 km/h
229 12-09-2018 19:00:00 26.2 C 12.06 g/m*3 26.2 C 12.9 km/h
230 12-09-2018 19:05:00 26 C 11.93 g/m*3 26 C 12.9 km/h
231 12-09-2018 19:10:00 25.8 C 11.8 g/m*3 25.8 C 11.3 km/h
232 12-09-2018 19:15:00 25.6 C 11.9 g/m*3 25.6 C 8.1 km/h
233 12-09-2018 19:20:00 25.4 C 12.48 g/m*3 25.4 C 12.9 km/h
234 12-09-2018 19:25:00 24.9 C 12.82 g/m*3 24.9 C 12.9 km/h
235 12-09-2018 19:30:00 24.4 C 13.13 g/m*3 24.4 C 16.1 km/h
236 12-09-2018 19:35:00 24 C 13.05 g/m*3 24 C 11.3 km/h
237 12-09-2018 19:40:00 23.7 C 13.26 g/m*3 23.7 C 11.3 km/h
238 12-09-2018 19:45:00 23.4 C 13.25 g/m*3 23.4 C 9.7 km/h
239 12-09-2018 19:50:00 23.1 C 13.44 g/m*3 23.1 C 11.3 km/h
240 12-09-2018 19:55:00 22.7 C 13.33 g/m*3 22.7 C 9.7 km/h
241 12-09-2018 20:00:00 22.3 C 13.43 g/m*3 22.3 C 11.3 km/h
242 12-09-2018 20:05:00 21.9 C 13.31 g/m*3 21.9 C 11.3 km/h
243 12-09-2018 20:10:00 21.7 C 13.35 g/m*3 21.7 C 6.4 km/h
244 12-09-2018 20:15:00 21.4 C 13.31 g/m*3 21.4 C 6.4 km/h
245 12-09-2018 20:20:00 21.2 C 13.34 g/m*3 21.2 C 6.4 km/h
246 12-09-2018 20:25:00 21 C 13.37 g/m*3 21 C 14.5 km/h
247 12-09-2018 20:30:00 20.8 C 13.22 g/m*3 20.8 C 9.7 km/h
248 12-09-2018 20:35:00 20.6 C 13.24 g/m*3 20.6 C 14.5 km/h
249 12-09-2018 20:40:00 20.4 C 13.27 g/m*3 20.4 C 8.1 km/h
250 12-09-2018 20:45:00 20.3 C 13.19 g/m*3 20.3 C 11.3 km/h
Sensor: Nr:Datum:Temp:Abs-Feuchte:Windchill:Wind:
Aussen-T/F 251 12-09-2018 20:50:00 20.2 C 13.29 g/m*3 20.2 C 6.4 km/h
252 12-09-2018 20:55:00 20.1 C 13.21 g/m*3 20.1 C 4.8 km/h
253 12-09-2018 21:00:00 19.9 C 13.23 g/m*3 19.9 C 11.3 km/h
254 12-09-2018 21:05:00 19.8 C 13.15 g/m*3 19.8 C 9.7 km/h
255 12-09-2018 21:10:00 19.6 C 13.17 g/m*3 19.6 C 11.3 km/h
256 12-09-2018 21:15:00 19.6 C 13.17 g/m*3 19.6 C 1.6 km/h
257 12-09-2018 21:20:00 19.4 C 13.01 g/m*3 19.4 C 6.4 km/h
258 12-09-2018 21:25:00 19.3 C 13.1 g/m*3 19.3 C 6.4 km/h
259 12-09-2018 21:30:00 19.2 C 13.03 g/m*3 19.2 C 6.4 km/h
260 12-09-2018 21:35:00 19.1 C 12.95 g/m*3 19.1 C 11.3 km/h
261 12-09-2018 21:40:00 19 C 12.87 g/m*3 19 C 3.2 km/h
262 12-09-2018 21:45:00 18.9 C 12.8 g/m*3 18.9 C 1.6 km/h
263 12-09-2018 21:50:00 18.7 C 12.81 g/m*3 18.7 C 9.7 km/h
264 12-09-2018 21:55:00 18.7 C 12.97 g/m*3 18.7 C 4.8 km/h
265 12-09-2018 22:00:00 18.6 C 12.89 g/m*3 18.6 C 9.7 km/h
266 12-09-2018 22:05:00 18.5 C 12.82 g/m*3 18.5 C 8.1 km/h
267 12-09-2018 22:10:00 18.4 C 12.74 g/m*3 18.4 C 3.2 km/h
268 12-09-2018 22:15:00 18.3 C 12.66 g/m*3 18.3 C 4.8 km/h
269 12-09-2018 22:20:00 18.3 C 12.82 g/m*3 18.3 C 9.7 km/h
270 12-09-2018 22:25:00 18.3 C 12.82 g/m*3 18.3 C 3.2 km/h
271 12-09-2018 22:30:00 18.2 C 12.75 g/m*3 18.2 C 6.4 km/h
272 12-09-2018 22:35:00 18.2 C 12.75 g/m*3 18.2 C 8.1 km/h
273 12-09-2018 22:40:00 18.1 C 12.67 g/m*3 18.1 C 4.8 km/h
274 12-09-2018 22:45:00 18 C 12.59 g/m*3 18 C 6.4 km/h
275 12-09-2018 22:50:00 17.9 C 12.52 g/m*3 17.9 C 9.7 km/h
Sensor: Nr:Datum:Temp:Abs-Feuchte:Windchill:Wind:
Aussen-T/F 276 12-09-2018 22:55:00 17.8 C 12.45 g/m*3 17.8 C 6.4 km/h
277 12-09-2018 23:00:00 17.8 C 12.45 g/m*3 17.8 C 6.4 km/h
278 12-09-2018 23:05:00 17.7 C 12.37 g/m*3 17.7 C 4.8 km/h
279 12-09-2018 23:10:00 17.6 C 12.3 g/m*3 17.6 C 9.7 km/h
280 12-09-2018 23:15:00 17.4 C 12.3 g/m*3 17.4 C 8.1 km/h
281 12-09-2018 23:20:00 17.3 C 12.23 g/m*3 17.3 C 8.1 km/h
282 12-09-2018 23:25:00 17.3 C 12.23 g/m*3 17.3 C 3.2 km/h
283 12-09-2018 23:30:00 17.2 C 12.15 g/m*3 17.2 C 4.8 km/h
284 12-09-2018 23:35:00 17.2 C 12.15 g/m*3 17.2 C 3.2 km/h
285 12-09-2018 23:40:00 17.1 C 12.23 g/m*3 17.1 C 0 km/h
286 12-09-2018 23:45:00 17.1 C 12.08 g/m*3 17.1 C 4.8 km/h
287 12-09-2018 23:50:00 17 C 12.15 g/m*3 17 C 6.4 km/h
288 12-09-2018 23:55:00 16.9 C 12.08 g/m*3 16.9 C 1.6 km/h

Legende:
   Min
   Max


Maximal/Minimal-Werte vom 12.09.2018 - 12.09.2018

Sensor Min Max Avg
Temp
(Aussen-T/F)
11.5 °C
12-09-2018  07:05:00
29.4 °C
12-09-2018  17:15:00
19.09 °C
Abs-Feuchte
(Aussen-T/F)
9.3 g/m*3
12-09-2018  07:05:00
13.44 g/m*3
12-09-2018  19:50:00
11.24 g/m*3
Windchill
(Aussen-T/F)
11.5 C
12-09-2018  07:05:00
29.4 C
12-09-2018  17:15:00
19.02 C

Die Daten stammen von einer Davis Vantage Pro 2 Wetter-Station und werden unter Linux mit der Software wview2wettercgi und aufbereitet. Alle Angaben erfolgen ohne Gewähr für ihre Vollständigkeit oder Richtigkeit.
Kontakt: Rainer Krienke krienke@uni-koblenz.de . Meine Webseiten an der Uni Koblenz oder privat.
Version: $Revision: 0.78 $